Time;durP1;ratioP1;P1;durP2;ratioP2;P2;SDS_P1;SDS_P2;PMS_P1;PMS_P2;Temp;Humidity;BMP_temperature;BMP_pressure;BME280_temperature;BME280_humidity;BME280_pressure;Samples;Min_cycle;Max_cycle;Signal;HPM_P1;HPM_P2
2021/10/14 00:00:14;;;;;;;18.50;5.75;;;18.60;89.20;;;;;;5023868;28;20560;-74
2021/10/14 00:02:40;;;;;;;16.17;5.03;;;18.60;89.20;;;;;;5026796;28;20091;-74
2021/10/14 00:05:07;;;;;;;19.45;6.07;;;18.60;89.10;;;;;;5027850;28;20080;-74
2021/10/14 00:07:34;;;;;;;21.67;5.05;;;18.60;89.10;;;;;;5022242;28;20100;-74
2021/10/14 00:10:00;;;;;;;12.50;5.35;;;18.60;89.00;;;;;;5024567;28;20029;-74
2021/10/14 00:12:27;;;;;;;18.70;5.35;;;18.60;89.10;;;;;;5025460;28;20025;-74
2021/10/14 00:14:53;;;;;;;14.82;5.53;;;18.60;89.10;;;;;;5025916;28;20025;-74
2021/10/14 00:17:20;;;;;;;18.92;6.05;;;18.60;89.10;;;;;;5025619;28;20417;-75
2021/10/14 00:19:46;;;;;;;22.92;6.97;;;18.50;89.10;;;;;;5024988;28;20044;-73
2021/10/14 00:22:13;;;;;;;22.25;6.50;;;18.60;89.20;;;;;;5027701;28;20018;-74
2021/10/14 00:24:39;;;;;;;22.10;5.70;;;18.60;88.90;;;;;;5019038;28;20018;-73
2021/10/14 00:27:06;;;;;;;21.67;5.93;;;18.60;88.80;;;;;;5021783;28;20025;-73
2021/10/14 00:29:33;;;;;;;23.25;7.93;;;18.60;88.70;;;;;;5020461;28;20037;-73
2021/10/14 00:31:59;;;;;;;21.88;6.13;;;18.50;88.80;;;;;;5008296;28;20209;-73
2021/10/14 00:34:26;;;;;;;26.25;7.28;;;18.60;88.90;;;;;;5021202;28;20033;-74
2021/10/14 00:36:52;;;;;;;23.67;7.07;;;18.50;88.90;;;;;;5020971;28;20097;-75
2021/10/14 00:39:19;;;;;;;22.60;5.60;;;18.50;89.00;;;;;;5023455;28;20027;-74
2021/10/14 00:41:45;;;;;;;17.65;6.80;;;18.60;88.90;;;;;;5023777;28;20034;-74
2021/10/14 00:44:12;;;;;;;20.98;6.25;;;18.60;89.10;;;;;;5020015;28;20313;-74
2021/10/14 00:46:52;;;;;;;25.40;6.47;;;18.60;89.00;;;;;;5022050;28;20048;-73
2021/10/14 00:49:19;;;;;;;22.52;6.15;;;18.50;88.90;;;;;;5020430;28;20033;-74
2021/10/14 00:51:46;;;;;;;21.45;7.32;;;18.50;88.70;;;;;;5026383;28;20037;-74
2021/10/14 00:54:16;;;;;;;21.38;6.75;;;18.50;88.80;;;;;;5021879;28;20692;-71
2021/10/14 00:56:43;;;;;;;28.98;6.18;;;18.50;89.20;;;;;;5022764;28;20091;-73
2021/10/14 00:59:10;;;;;;;21.75;6.55;;;18.50;89.30;;;;;;5020776;28;20068;-72
2021/10/14 01:01:37;;;;;;;12.18;5.55;;;18.50;90.10;;;;;;5025510;28;20073;-71
2021/10/14 01:04:07;;;;;;;17.75;5.75;;;18.50;89.30;;;;;;5023065;28;20036;-72
2021/10/14 01:06:33;;;;;;;17.98;4.75;;;18.40;88.70;;;;;;5020822;28;20125;-72
2021/10/14 01:09:00;;;;;;;21.88;6.53;;;18.40;89.30;;;;;;5024069;28;20068;-72
2021/10/14 01:11:27;;;;;;;20.05;7.25;;;18.40;89.90;;;;;;5024716;28;20037;-71
2021/10/14 01:13:53;;;;;;;19.77;6.90;;;18.40;90.20;;;;;;5031124;28;20053;-75
2021/10/14 01:16:20;;;;;;;22.67;8.02;;;18.40;90.40;;;;;;5023820;28;20022;-72
2021/10/14 01:18:46;;;;;;;28.63;6.07;;;18.40;90.50;;;;;;5023181;28;20026;-73
2021/10/14 01:21:13;;;;;;;21.42;7.35;;;18.30;90.40;;;;;;5028148;28;20441;-80
2021/10/14 01:23:41;;;;;;;17.02;6.18;;;18.40;90.30;;;;;;5026324;28;20117;-72
2021/10/14 01:26:07;;;;;;;26.48;6.72;;;18.40;90.20;;;;;;5023558;28;20025;-72
2021/10/14 01:28:34;;;;;;;35.63;7.07;;;18.30;90.20;;;;;;5028687;28;20028;-75
2021/10/14 01:31:00;;;;;;;22.88;6.65;;;18.30;90.20;;;;;;5025370;28;20025;-82
2021/10/14 01:33:27;;;;;;;22.15;8.00;;;18.30;90.00;;;;;;5025857;28;20038;-73
2021/10/14 01:35:53;;;;;;;16.83;5.22;;;18.30;89.70;;;;;;5025402;28;20484;-78
2021/10/14 01:38:20;;;;;;;24.38;6.22;;;18.30;89.80;;;;;;5025394;28;20046;-79
2021/10/14 01:40:46;;;;;;;20.70;5.57;;;18.30;89.40;;;;;;5025173;28;20025;-72
2021/10/14 01:43:16;;;;;;;17.58;7.20;;;18.20;89.00;;;;;;5019814;28;20041;-72
2021/10/14 01:45:42;;;;;;;16.50;4.88;;;18.20;89.20;;;;;;5028428;28;20428;-74
2021/10/14 01:48:09;;;;;;;22.80;6.22;;;18.30;89.70;;;;;;5022473;28;20020;-73
2021/10/14 01:50:35;;;;;;;18.52;4.90;;;18.20;89.80;;;;;;5026270;28;20029;-76
2021/10/14 01:53:02;;;;;;;17.50;4.40;;;18.20;89.70;;;;;;5028140;28;20611;-73
2021/10/14 01:55:28;;;;;;;18.80;4.45;;;18.10;89.30;;;;;;5029455;28;20025;-75
2021/10/14 01:57:55;;;;;;;26.25;5.30;;;18.10;89.50;;;;;;5029665;28;20025;-74
2021/10/14 02:00:21;;;;;;;23.10;6.13;;;18.10;89.70;;;;;;5021593;28;20120;-73
2021/10/14 02:02:48;;;;;;;17.55;5.70;;;18.10;89.80;;;;;;5021304;28;20041;-75
2021/10/14 02:05:14;;;;;;;25.27;8.05;;;18.20;89.60;;;;;;5030907;28;20097;-77
2021/10/14 02:07:41;;;;;;;24.63;7.55;;;18.20;89.80;;;;;;5024160;28;20766;-73
2021/10/14 02:10:08;;;;;;;29.85;7.75;;;18.20;89.70;;;;;;5019234;28;20018;-75
2021/10/14 02:12:34;;;;;;;39.85;10.15;;;18.30;89.70;;;;;;5023512;28;20115;-73
2021/10/14 02:15:01;;;;;;;21.98;7.07;;;18.20;89.60;;;;;;5015242;28;20445;-73
2021/10/14 02:17:28;;;;;;;26.65;6.72;;;18.30;89.60;;;;;;5024856;28;20026;-72
2021/10/14 02:19:54;;;;;;;34.15;9.23;;;18.30;89.40;;;;;;5018565;28;20444;-73
2021/10/14 02:22:21;;;;;;;29.60;7.22;;;18.30;89.30;;;;;;5024340;28;20076;-73
2021/10/14 02:24:47;;;;;;;32.53;7.43;;;18.30;88.70;;;;;;5021031;28;20492;-74
2021/10/14 02:27:14;;;;;;;25.05;7.95;;;18.30;88.80;;;;;;5025736;28;20096;-74
2021/10/14 02:29:40;;;;;;;27.35;6.57;;;18.30;88.90;;;;;;5027558;28;20037;-73
2021/10/14 02:32:07;;;;;;;27.52;6.50;;;18.30;88.80;;;;;;5025178;28;20121;-74
2021/10/14 02:34:33;;;;;;;29.92;6.75;;;18.40;88.70;;;;;;5019422;28;20017;-73
2021/10/14 02:37:00;;;;;;;27.77;7.70;;;18.40;88.70;;;;;;5020418;28;20385;-73
2021/10/14 02:39:26;;;;;;;21.42;6.93;;;18.30;88.50;;;;;;5026797;28;20029;-74
2021/10/14 02:41:53;;;;;;;30.23;6.70;;;18.30;88.60;;;;;;5029447;28;20514;-73
2021/10/14 02:44:19;;;;;;;24.20;6.72;;;18.30;88.80;;;;;;5013519;28;20118;-73
2021/10/14 02:46:46;;;;;;;28.63;7.57;;;18.30;88.90;;;;;;5016588;28;20022;-73
2021/10/14 02:49:12;;;;;;;20.67;5.75;;;18.30;88.90;;;;;;5018008;28;20033;-73
2021/10/14 02:51:39;;;;;;;21.85;7.05;;;18.30;88.90;;;;;;5017246;28;20187;-72
2021/10/14 02:54:06;;;;;;;19.63;6.10;;;18.30;89.00;;;;;;5016686;28;20026;-73
2021/10/14 02:56:32;;;;;;;40.58;20.73;;;18.30;88.80;;;;;;5015922;28;20041;-74
2021/10/14 02:58:58;;;;;;;38.58;26.33;;;18.30;89.10;;;;;;5017983;28;20476;-73
2021/10/14 03:01:25;;;;;;;19.95;5.70;;;18.30;88.40;;;;;;5016883;28;20036;-75
2021/10/14 03:03:51;;;;;;;18.27;4.28;;;18.30;88.10;;;;;;5017075;28;20048;-73
2021/10/14 03:06:18;;;;;;;15.63;5.47;;;18.30;88.20;;;;;;5016336;28;20827;-73
2021/10/14 03:08:44;;;;;;;27.77;7.50;;;18.30;88.40;;;;;;5017995;28;20034;-74
2021/10/14 03:11:11;;;;;;;22.42;6.68;;;18.30;88.50;;;;;;5018469;28;20049;-73
2021/10/14 03:13:38;;;;;;;20.35;4.78;;;18.30;88.20;;;;;;5000960;28;20386;-73
2021/10/14 03:16:05;;;;;;;19.27;6.88;;;18.30;88.50;;;;;;5017631;28;20026;-74
2021/10/14 03:18:32;;;;;;;26.42;6.13;;;18.30;88.70;;;;;;5017582;28;20022;-74
2021/10/14 03:21:01;;;;;;;20.13;5.85;;;18.20;88.80;;;;;;5014169;28;20464;-73
2021/10/14 03:23:28;;;;;;;24.00;6.88;;;18.20;89.40;;;;;;5015105;28;20037;-72
2021/10/14 03:25:54;;;;;;;27.55;8.48;;;18.30;88.90;;;;;;5014406;28;20022;-72
2021/10/14 03:28:21;;;;;;;25.60;6.68;;;18.20;89.30;;;;;;5017573;28;20029;-77
2021/10/14 03:30:47;;;;;;;19.08;7.20;;;18.20;89.50;;;;;;5018248;28;20018;-72
2021/10/14 03:33:14;;;;;;;36.95;10.63;;;18.20;89.90;;;;;;5014643;28;20042;-79
2021/10/14 03:35:41;;;;;;;32.00;6.70;;;18.20;89.90;;;;;;5015429;28;20029;-75
2021/10/14 03:38:07;;;;;;;30.58;7.57;;;18.20;90.00;;;;;;5016381;28;20025;-74
2021/10/14 03:40:34;;;;;;;27.92;11.57;;;18.20;90.20;;;;;;5016744;28;20228;-71
2021/10/14 03:43:00;;;;;;;18.25;7.85;;;18.10;90.40;;;;;;5014241;28;20029;-70
2021/10/14 03:45:27;;;;;;;14.93;5.45;;;18.10;90.30;;;;;;5017157;28;20025;-70
2021/10/14 03:47:53;;;;;;;14.52;3.60;;;18.10;90.10;;;;;;5016910;28;20021;-71
2021/10/14 03:50:20;;;;;;;10.00;3.00;;;18.10;89.90;;;;;;5018801;28;20071;-69
2021/10/14 03:52:46;;;;;;;14.02;5.38;;;18.10;90.00;;;;;;5013732;28;20034;-70
2021/10/14 03:55:13;;;;;;;10.77;3.67;;;18.10;90.20;;;;;;5017941;28;20483;-71
2021/10/14 03:57:39;;;;;;;9.15;3.38;;;18.00;90.30;;;;;;5016656;28;20025;-70
2021/10/14 04:00:07;;;;;;;8.95;3.85;;;18.00;90.30;;;;;;5015802;28;20052;-69
2021/10/14 04:02:34;;;;;;;11.25;2.90;;;18.10;90.30;;;;;;5015098;28;20046;-70
2021/10/14 04:05:01;;;;;;;16.95;3.15;;;18.00;90.30;;;;;;5006444;28;20710;-69
2021/10/14 04:07:27;;;;;;;24.00;13.43;;;18.10;90.00;;;;;;5023471;28;20025;-69
2021/10/14 04:09:54;;;;;;;35.55;15.60;;;18.00;90.00;;;;;;5022586;28;20029;-68
2021/10/14 04:12:20;;;;;;;52.63;16.95;;;18.00;90.10;;;;;;5021628;28;20017;-68
2021/10/14 04:14:47;;;;;;;27.48;11.13;;;18.10;90.20;;;;;;5020617;28;20504;-71
2021/10/14 04:17:13;;;;;;;16.45;5.82;;;18.10;90.40;;;;;;5026702;28;20109;-69
2021/10/14 04:19:40;;;;;;;27.75;5.65;;;18.10;90.40;;;;;;5017759;28;20105;-68
2021/10/14 04:22:06;;;;;;;26.25;9.45;;;18.00;90.40;;;;;;5026736;28;20025;-69
2021/10/14 04:24:33;;;;;;;56.10;39.30;;;18.00;90.50;;;;;;5025471;28;20476;-68
2021/10/14 04:27:00;;;;;;;15.40;6.93;;;18.00;90.60;;;;;;5022656;28;20032;-68
2021/10/14 04:29:27;;;;;;;12.98;3.58;;;18.10;90.70;;;;;;5020904;28;20022;-73
2021/10/14 04:31:54;;;;;;;18.17;5.97;;;18.00;90.70;;;;;;5027237;28;20060;-69
2021/10/14 04:34:21;;;;;;;14.88;3.72;;;18.00;90.80;;;;;;5026405;28;20054;-70
2021/10/14 04:36:47;;;;;;;15.10;4.38;;;18.00;90.70;;;;;;5022534;28;20037;-70
2021/10/14 04:39:15;;;;;;;11.70;4.10;;;18.00;90.70;;;;;;5021366;28;20590;-71
2021/10/14 04:41:44;;;;;;;114.60;90.05;;;18.00;90.70;;;;;;5023691;28;20097;-71
2021/10/14 04:44:11;;;;;;;46.13;34.22;;;18.00;90.80;;;;;;5028162;28;20049;-71
2021/10/14 04:46:37;;;;;;;13.50;5.38;;;18.00;90.90;;;;;;5025854;28;20112;-71
2021/10/14 04:49:03;;;;;;;10.85;3.55;;;18.10;90.90;;;;;;5025436;28;20021;-72
2021/10/14 04:51:30;;;;;;;16.02;4.50;;;18.10;91.00;;;;;;5018948;28;20397;-74
2021/10/14 04:53:56;;;;;;;9.80;2.60;;;18.10;91.00;;;;;;5024951;28;20099;-72
2021/10/14 04:56:23;;;;;;;9.57;3.50;;;18.10;91.00;;;;;;5028340;28;20025;-78
2021/10/14 04:59:29;;;;;;;12.55;2.90;;;18.10;91.10;;;;;;5024711;28;20025;-74
2021/10/14 05:02:35;;;;;;;9.57;3.03;;;18.10;91.20;;;;;;5013704;28;20045;-76
2021/10/14 05:05:45;;;;;;;13.60;4.35;;;18.10;91.30;;;;;;5018441;28;20029;-72
2021/10/14 05:08:51;;;;;;;9.45;2.88;;;18.10;91.30;;;;;;5017612;28;20021;-72
2021/10/14 05:11:28;;;;;;;12.00;3.10;;;18.20;91.40;;;;;;5025511;28;20372;-72
2021/10/14 05:13:55;;;;;;;12.50;3.83;;;18.10;91.40;;;;;;5026322;28;20068;-71
2021/10/14 05:16:21;;;;;;;12.82;3.05;;;18.20;91.40;;;;;;5028975;28;20117;-78
2021/10/14 05:18:48;;;;;;;11.77;3.70;;;18.20;91.40;;;;;;5022494;28;20014;-72
2021/10/14 05:21:14;;;;;;;9.48;2.95;;;18.20;91.40;;;;;;5023942;28;20014;-72
2021/10/14 05:23:41;;;;;;;7.53;3.35;;;18.30;91.40;;;;;;5029771;28;20040;-74
2021/10/14 05:26:07;;;;;;;8.95;3.45;;;18.20;91.40;;;;;;5028713;28;20022;-77
2021/10/14 05:28:33;;;;;;;13.77;3.22;;;18.30;91.40;;;;;;5025937;28;20028;-74
2021/10/14 05:31:00;;;;;;;10.98;3.08;;;18.20;91.40;;;;;;5028824;28;20496;-73
2021/10/14 05:33:26;;;;;;;14.65;3.92;;;18.30;91.40;;;;;;5027728;28;20128;-75
2021/10/14 05:35:53;;;;;;;13.68;4.10;;;18.30;91.30;;;;;;5023778;28;20037;-74
2021/10/14 05:38:19;;;;;;;11.27;4.68;;;18.30;91.20;;;;;;5022758;28;20018;-75
2021/10/14 05:40:48;;;;;;;12.32;4.60;;;18.40;91.40;;;;;;5007522;28;20384;-73
2021/10/14 05:43:15;;;;;;;14.20;4.30;;;18.40;91.40;;;;;;5019810;28;20041;-75
2021/10/14 05:45:42;;;;;;;20.55;4.55;;;18.40;91.30;;;;;;5025136;28;20476;-73
2021/10/14 05:48:08;;;;;;;13.63;4.88;;;18.40;91.50;;;;;;5020665;28;20037;-73
2021/10/14 05:50:35;;;;;;;14.77;4.50;;;18.50;91.50;;;;;;5025938;28;20029;-74
2021/10/14 05:53:01;;;;;;;16.88;4.90;;;18.50;91.50;;;;;;5010721;28;20424;-77
2021/10/14 05:55:28;;;;;;;20.83;5.45;;;18.60;91.30;;;;;;5028048;28;20029;-77
2021/10/14 05:57:54;;;;;;;11.20;4.30;;;18.60;91.30;;;;;;5028573;28;20052;-73
2021/10/14 06:00:21;;;;;;;22.30;6.22;;;18.70;91.20;;;;;;5025580;28;20080;-74
2021/10/14 06:02:48;;;;;;;24.35;5.65;;;18.70;91.00;;;;;;5022412;28;20065;-77
2021/10/14 06:05:14;;;;;;;13.45;4.97;;;18.80;90.90;;;;;;5013795;28;20131;-75
2021/10/14 06:07:41;;;;;;;13.68;4.97;;;18.80;90.80;;;;;;5022332;28;20514;-76
2021/10/14 06:10:07;;;;;;;13.20;4.93;;;18.80;90.70;;;;;;5028958;28;20021;-74
2021/10/14 06:12:34;;;;;;;10.55;3.33;;;18.90;90.70;;;;;;5026886;28;20022;-76
2021/10/14 06:15:00;;;;;;;15.52;4.68;;;18.90;90.70;;;;;;5024401;28;20014;-78
2021/10/14 06:17:27;;;;;;;20.83;5.28;;;19.00;90.60;;;;;;5026138;28;20026;-76
2021/10/14 06:19:53;;;;;;;13.73;3.80;;;19.00;90.50;;;;;;5021029;28;20072;-77
2021/10/14 06:22:20;;;;;;;25.85;5.68;;;19.10;90.40;;;;;;5031172;28;20480;-77
2021/10/14 06:24:46;;;;;;;16.00;5.38;;;19.10;90.30;;;;;;5025766;28;20446;-77
2021/10/14 06:27:13;;;;;;;15.30;4.63;;;19.10;89.40;;;;;;5027861;28;20017;-77
2021/10/14 06:29:39;;;;;;;16.48;4.28;;;19.10;88.70;;;;;;5022386;28;20026;-75
2021/10/14 06:32:06;;;;;;;16.35;4.18;;;19.20;88.40;;;;;;5029494;28;20033;-75
2021/10/14 06:34:32;;;;;;;10.50;3.78;;;19.20;87.80;;;;;;5027189;28;20028;-75
2021/10/14 06:36:59;;;;;;;21.98;3.35;;;19.20;86.70;;;;;;5024071;28;20057;-76
2021/10/14 06:39:25;;;;;;;13.20;4.13;;;19.20;85.30;;;;;;5021924;28;20022;-77
2021/10/14 06:41:55;;;;;;;11.77;3.20;;;19.20;85.60;;;;;;5024812;28;20034;-75
2021/10/14 06:44:22;;;;;;;14.23;3.28;;;19.20;85.50;;;;;;5023574;28;20032;-75
2021/10/14 06:46:49;;;;;;;10.20;3.38;;;19.20;85.70;;;;;;5024827;28;20022;-75
2021/10/14 06:49:18;;;;;;;16.02;4.25;;;19.20;85.60;;;;;;5023793;28;20026;-75
2021/10/14 06:51:45;;;;;;;18.33;3.72;;;19.30;85.50;;;;;;5007507;28;20103;-75
2021/10/14 06:54:12;;;;;;;14.18;3.33;;;19.40;85.70;;;;;;5026053;28;20029;-76
2021/10/14 06:56:39;;;;;;;14.23;2.97;;;19.50;86.50;;;;;;5025510;28;20021;-76
2021/10/14 06:59:06;;;;;;;9.98;2.60;;;19.50;85.90;;;;;;5023667;28;20067;-76
2021/10/14 07:01:32;;;;;;;13.35;3.22;;;19.50;84.50;;;;;;5018621;28;20366;-76
2021/10/14 07:03:59;;;;;;;8.63;2.25;;;19.50;83.10;;;;;;5021241;28;20076;-76
2021/10/14 07:06:25;;;;;;;15.75;2.58;;;19.50;83.10;;;;;;5025979;28;20017;-75
2021/10/14 07:08:52;;;;;;;10.57;2.60;;;19.50;83.10;;;;;;5025698;28;20053;-77
2021/10/14 07:11:18;;;;;;;11.63;2.97;;;19.60;82.90;;;;;;5020583;28;20021;-77
2021/10/14 07:13:45;;;;;;;16.88;3.70;;;19.60;82.20;;;;;;5028659;28;20032;-76
2021/10/14 07:16:12;;;;;;;10.02;3.17;;;19.60;81.70;;;;;;5020904;28;20052;-76
2021/10/14 07:18:39;;;;;;;10.23;2.92;;;19.60;81.40;;;;;;5028086;28;20018;-75
2021/10/14 07:21:08;;;;;;;8.95;2.80;;;19.70;81.70;;;;;;5028804;28;20025;-76
2021/10/14 07:23:35;;;;;;;11.00;3.88;;;19.70;81.10;;;;;;5020335;28;20037;-75
2021/10/14 07:26:01;;;;;;;13.23;3.22;;;19.70;80.60;;;;;;5025206;28;20018;-76
2021/10/14 07:28:28;;;;;;;9.30;2.65;;;19.70;80.60;;;;;;5022085;28;20358;-76
2021/10/14 07:30:54;;;;;;;10.98;2.67;;;19.80;80.50;;;;;;5029118;28;20048;-76
2021/10/14 07:33:21;;;;;;;12.30;2.50;;;19.80;80.60;;;;;;5020292;28;20571;-75
2021/10/14 07:35:48;;;;;;;13.38;2.78;;;19.90;80.60;;;;;;5023331;28;20546;-76
2021/10/14 07:38:14;;;;;;;10.60;3.10;;;19.90;80.50;;;;;;5014388;28;20111;-76
2021/10/14 07:40:43;;;;;;;12.13;3.47;;;19.90;79.60;;;;;;5027611;28;20025;-76
2021/10/14 07:43:14;;;;;;;18.05;2.92;;;19.90;79.40;;;;;;5024088;28;20025;-76
2021/10/14 07:45:42;;;;;;;13.45;2.78;;;19.90;79.40;;;;;;5021558;28;20026;-77
2021/10/14 07:48:09;;;;;;;11.90;2.30;;;19.90;79.50;;;;;;5027676;28;20104;-76
2021/10/14 07:50:36;;;;;;;13.07;2.53;;;20.00;79.30;;;;;;5023600;28;20332;-76
2021/10/14 07:53:14;;;;;;;24.25;4.38;;;20.00;78.90;;;;;;5025698;28;20025;-76
2021/10/14 07:55:41;;;;;;;12.23;2.50;;;20.10;78.50;;;;;;5022307;28;20112;-76
2021/10/14 07:58:08;;;;;;;17.35;3.28;;;20.10;78.70;;;;;;5026358;28;20100;-77
2021/10/14 08:00:35;;;;;;;8.80;2.03;;;20.20;78.90;;;;;;5020173;28;20033;-75
2021/10/14 08:03:02;;;;;;;11.38;2.83;;;20.20;78.70;;;;;;5026996;28;20052;-76
2021/10/14 08:05:29;;;;;;;13.15;2.70;;;20.30;78.80;;;;;;5029555;28;20487;-80
2021/10/14 08:07:55;;;;;;;9.40;2.72;;;20.30;78.80;;;;;;5021787;28;20030;-77
2021/10/14 08:10:22;;;;;;;9.68;3.45;;;20.30;78.70;;;;;;5023522;28;20021;-78
2021/10/14 08:12:48;;;;;;;8.30;2.03;;;20.20;78.50;;;;;;5020829;28;20116;-78
2021/10/14 08:15:15;;;;;;;12.18;2.88;;;20.20;79.00;;;;;;5026703;28;20017;-77
2021/10/14 08:17:41;;;;;;;12.27;2.38;;;20.20;78.90;;;;;;5018966;28;20569;-76
2021/10/14 08:20:09;;;;;;;13.10;2.65;;;20.20;79.20;;;;;;5023680;28;20021;-76
2021/10/14 08:22:36;;;;;;;9.75;2.67;;;20.10;78.50;;;;;;5009425;28;20037;-76
2021/10/14 08:25:12;;;;;;;16.35;3.53;;;20.10;79.00;;;;;;5018855;28;20065;-77
2021/10/14 08:27:40;;;;;;;8.57;2.45;;;20.20;79.40;;;;;;5026959;28;20570;-76
2021/10/14 08:30:07;;;;;;;5.40;1.88;;;20.40;79.80;;;;;;5020850;28;20026;-80
2021/10/14 08:32:34;;;;;;;12.07;2.58;;;20.50;79.70;;;;;;5021110;28;20056;-76
2021/10/14 08:35:00;;;;;;;9.77;2.20;;;20.60;78.60;;;;;;5025764;28;20014;-77
2021/10/14 08:37:29;;;;;;;9.25;2.92;;;20.70;77.80;;;;;;5000303;28;20131;-75
2021/10/14 08:39:56;;;;;;;7.65;2.90;;;20.80;77.40;;;;;;5024798;28;20749;-78
2021/10/14 08:42:22;;;;;;;21.25;3.13;;;20.80;77.40;;;;;;5027123;28;20037;-76
2021/10/14 08:44:49;;;;;;;10.13;2.67;;;20.80;75.80;;;;;;5008032;28;20026;-77
2021/10/14 08:47:16;;;;;;;9.90;2.50;;;20.90;75.30;;;;;;5024548;28;20045;-77
2021/10/14 08:49:44;;;;;;;16.80;2.85;;;20.90;75.40;;;;;;5026328;28;20027;-77
2021/10/14 08:52:12;;;;;;;80.88;13.23;;;21.00;74.90;;;;;;5020006;28;20021;-76
2021/10/14 08:54:40;;;;;;;12.25;3.70;;;21.00;74.80;;;;;;5018495;28;20017;-76
2021/10/14 08:57:07;;;;;;;7.70;2.17;;;21.10;74.10;;;;;;5022630;28;20017;-77
2021/10/14 08:59:34;;;;;;;7.72;2.08;;;21.10;73.30;;;;;;5021630;28;20014;-76
2021/10/14 09:02:10;;;;;;;12.35;4.68;;;21.10;73.40;;;;;;5022668;28;20028;-77
2021/10/14 09:04:59;;;;;;;14.45;2.65;;;21.10;73.60;;;;;;5017515;28;20053;-76
2021/10/14 09:07:31;;;;;;;7.18;1.85;;;21.10;73.30;;;;;;5024977;28;20076;-77
2021/10/14 09:10:10;;;;;;;11.32;1.95;;;21.10;73.40;;;;;;5026777;28;20037;-76
2021/10/14 09:12:39;;;;;;;8.35;1.75;;;21.10;72.70;;;;;;5003235;28;20021;-77
2021/10/14 09:15:18;;;;;;;9.13;2.15;;;21.10;71.70;;;;;;5021861;28;20068;-77
2021/10/14 09:17:52;;;;;;;4.63;1.50;;;21.20;71.40;;;;;;5021758;28;20021;-77
2021/10/14 09:20:33;;;;;;;6.97;2.10;;;21.20;71.30;;;;;;5020925;28;20120;-77
2021/10/14 09:23:22;;;;;;;18.52;3.05;;;21.30;71.20;;;;;;5024298;28;20473;-75
2021/10/14 09:25:53;;;;;;;11.15;2.30;;;21.40;69.90;;;;;;5023920;28;20068;-75
2021/10/14 09:28:27;;;;;;;9.95;2.25;;;21.50;70.30;;;;;;5028103;28;20384;-76
2021/10/14 09:31:03;;;;;;;11.98;2.22;;;21.50;70.10;;;;;;5024364;28;20029;-79
2021/10/14 09:33:35;;;;;;;7.85;1.83;;;21.50;70.80;;;;;;5024591;28;20658;-76
2021/10/14 09:36:20;;;;;;;10.05;1.90;;;21.40;70.30;;;;;;5026001;28;20021;-76
2021/10/14 09:38:52;;;;;;;5.53;3.08;;;21.40;70.20;;;;;;5022259;28;20013;-76
2021/10/14 09:41:21;;;;;;;13.63;2.45;;;21.40;70.20;;;;;;5029853;28;20403;-77
2021/10/14 09:43:50;;;;;;;5.85;1.90;;;21.30;70.20;;;;;;5025048;28;20079;-77
2021/10/14 09:46:41;;;;;;;5.15;1.70;;;21.30;70.60;;;;;;5009404;28;20045;-77
2021/10/14 09:49:12;;;;;;;3.33;1.42;;;21.20;71.10;;;;;;5028783;28;20021;-77
2021/10/14 09:51:41;;;;;;;3.92;1.92;;;21.20;70.40;;;;;;5024896;28;20017;-75
2021/10/14 09:54:08;;;;;;;3.08;1.38;;;21.10;71.40;;;;;;5028399;28;20476;-77
2021/10/14 09:56:35;;;;;;;3.83;1.40;;;21.00;73.30;;;;;;5023698;28;20030;-78
2021/10/14 09:59:02;;;;;;;4.07;1.42;;;20.90;74.00;;;;;;5026703;28;20075;-78
2021/10/14 10:01:34;;;;;;;3.30;1.50;;;20.80;74.90;;;;;;5024620;28;20033;-77
2021/10/14 10:04:04;;;;;;;4.18;0.98;;;20.70;75.20;;;;;;5029492;28;20534;-77
2021/10/14 10:06:35;;;;;;;4.00;1.30;;;20.60;74.40;;;;;;5023596;28;20026;-77
2021/10/14 10:09:17;;;;;;;4.25;1.65;;;20.50;74.60;;;;;;5024467;28;20017;-76
2021/10/14 10:11:51;;;;;;;5.97;1.83;;;20.40;74.80;;;;;;5025785;28;20029;-77
2021/10/14 10:14:24;;;;;;;4.50;1.00;;;20.30;75.10;;;;;;5026487;28;20061;-78
2021/10/14 10:17:14;;;;;;;14.15;2.95;;;20.30;77.40;;;;;;5028002;28;20017;-77
2021/10/14 10:19:52;;;;;;;4.85;2.25;;;20.20;78.20;;;;;;5027429;28;20021;-77
2021/10/14 10:22:34;;;;;;;2.53;0.70;;;20.30;78.10;;;;;;5025073;28;20034;-78
2021/10/14 10:25:19;;;;;;;1.60;1.10;;;20.30;78.40;;;;;;5027297;28;20044;-76
2021/10/14 10:27:46;;;;;;;1.80;0.77;;;20.50;78.20;;;;;;5026250;28;20036;-76
2021/10/14 10:30:31;;;;;;;3.00;0.90;;;20.60;77.50;;;;;;5031274;28;20076;-76
2021/10/14 10:32:58;;;;;;;1.35;0.75;;;20.80;76.50;;;;;;5023873;28;20045;-76
2021/10/14 10:35:46;;;;;;;4.07;1.10;;;21.00;75.30;;;;;;5026163;28;20032;-76
2021/10/14 10:38:26;;;;;;;3.92;0.95;;;21.20;73.80;;;;;;5010464;28;20029;-76
2021/10/14 10:40:58;;;;;;;3.42;0.93;;;21.30;72.20;;;;;;5009981;28;20527;-76
2021/10/14 10:43:30;;;;;;;4.57;1.58;;;21.40;71.90;;;;;;5024090;28;20026;-75
2021/10/14 10:46:07;;;;;;;3.30;1.00;;;21.60;71.30;;;;;;5010093;28;20061;-80
2021/10/14 10:48:36;;;;;;;6.75;1.50;;;21.60;69.40;;;;;;5027486;28;20040;-76
2021/10/14 10:51:06;;;;;;;4.93;1.48;;;21.60;68.60;;;;;;5022851;28;20508;-76
2021/10/14 10:53:48;;;;;;;3.70;1.17;;;21.70;67.90;;;;;;5024055;28;20087;-76
2021/10/14 10:56:28;;;;;;;4.90;1.15;;;21.70;68.00;;;;;;5026890;28;20021;-77
2021/10/14 10:58:56;;;;;;;2.70;1.42;;;21.80;67.90;;;;;;5027169;28;20045;-76
2021/10/14 11:01:23;;;;;;;4.20;1.10;;;21.90;68.10;;;;;;5027595;28;20056;-76
2021/10/14 11:04:01;;;;;;;3.35;1.25;;;21.90;66.80;;;;;;5024214;28;20087;-77
2021/10/14 11:06:29;;;;;;;5.43;1.60;;;21.90;66.20;;;;;;5025570;28;20027;-76
2021/10/14 11:09:11;;;;;;;4.10;1.00;;;21.90;66.80;;;;;;5011077;28;20029;-77
2021/10/14 11:11:38;;;;;;;5.13;1.65;;;21.80;66.40;;;;;;5030388;28;20401;-76
2021/10/14 11:14:06;;;;;;;5.18;1.70;;;21.80;66.80;;;;;;5030368;28;20014;-76
2021/10/14 11:16:32;;;;;;;6.78;1.38;;;21.80;66.90;;;;;;5031343;28;20104;-78
2021/10/14 11:19:01;;;;;;;13.93;1.98;;;21.80;67.00;;;;;;5030173;28;20010;-77
2021/10/14 11:21:28;;;;;;;2.92;1.17;;;21.80;67.30;;;;;;5013384;28;20468;-77
2021/10/14 11:23:59;;;;;;;3.75;1.65;;;21.90;66.50;;;;;;5030084;28;20378;-77
2021/10/14 11:29:29;;;;;;;8.80;1.40;;;21.70;66.20;;;;;;5030910;28;20025;-80
2021/10/14 11:32:06;;;;;;;6.87;2.30;;;21.70;65.80;;;;;;5029978;28;20092;-77
2021/10/14 11:34:35;;;;;;;8.20;1.58;;;21.60;66.10;;;;;;5030957;28;20274;-77
2021/10/14 11:37:05;;;;;;;4.55;1.73;;;21.60;65.70;;;;;;5030116;28;20018;-77
2021/10/14 11:39:43;;;;;;;4.65;1.70;;;21.50;65.70;;;;;;5030636;28;20025;-77
2021/10/14 11:42:10;;;;;;;6.60;1.77;;;21.40;65.60;;;;;;5031188;28;20033;-77
2021/10/14 11:44:47;;;;;;;4.85;1.85;;;21.40;65.90;;;;;;5029778;28;20034;-77
2021/10/14 11:47:21;;;;;;;3.60;2.03;;;21.30;65.50;;;;;;5030847;28;20033;-76
2021/10/14 11:49:58;;;;;;;8.23;2.57;;;21.30;65.80;;;;;;5029846;28;20033;-77
2021/10/14 11:52:25;;;;;;;6.50;2.78;;;21.30;66.00;;;;;;5012286;28;20022;-77
2021/10/14 11:54:52;;;;;;;6.65;2.30;;;21.30;65.80;;;;;;5030228;28;20026;-76
2021/10/14 11:57:30;;;;;;;8.43;2.13;;;21.40;65.80;;;;;;5012047;28;20032;-77
2021/10/14 11:59:57;;;;;;;9.48;2.08;;;21.50;65.80;;;;;;5012783;28;20421;-76
2021/10/14 12:02:24;;;;;;;5.93;1.83;;;21.50;65.50;;;;;;5029054;28;20075;-77
2021/10/14 12:04:53;;;;;;;5.45;1.73;;;21.60;65.70;;;;;;5012746;28;20052;-76
2021/10/14 12:07:26;;;;;;;6.30;2.88;;;21.60;65.40;;;;;;5029487;28;20027;-77
2021/10/14 12:09:54;;;;;;;5.38;2.15;;;21.60;64.90;;;;;;5030199;28;20780;-76
2021/10/14 12:12:28;;;;;;;7.20;2.45;;;21.70;65.10;;;;;;5030314;28;20049;-76
2021/10/14 12:15:03;;;;;;;6.43;1.85;;;21.70;65.00;;;;;;5011583;28;20022;-77
2021/10/14 12:17:56;;;;;;;6.70;2.10;;;21.70;64.70;;;;;;5030603;28;20030;-76
2021/10/14 12:20:24;;;;;;;6.93;2.00;;;21.70;64.90;;;;;;5028437;28;20055;-76
2021/10/14 12:22:52;;;;;;;5.28;1.95;;;21.80;64.90;;;;;;5029943;28;20480;-76
2021/10/14 12:25:48;;;;;;;14.63;3.17;;;21.90;64.90;;;;;;5030765;28;20010;-77
2021/10/14 12:28:24;;;;;;;8.02;2.50;;;21.90;64.40;;;;;;5003229;28;20034;-73
2021/10/14 12:30:50;;;;;;;5.25;2.13;;;21.90;64.10;;;;;;5009881;28;20040;-78
2021/10/14 12:33:19;;;;;;;7.85;2.25;;;22.00;64.90;;;;;;5013767;28;20038;-76
2021/10/14 12:35:54;;;;;;;23.42;20.83;;;22.00;64.50;;;;;;5016372;28;20126;-78
2021/10/14 12:38:21;;;;;;;48.72;40.03;;;22.00;64.80;;;;;;4987110;28;20428;-77
2021/10/14 12:41:11;;;;;;;8.20;4.60;;;22.10;64.40;;;;;;5012290;28;20091;-77
2021/10/14 12:46:26;;;;;;;8.55;1.98;;;22.00;64.20;;;;;;5012550;28;20033;-72
2021/10/14 12:50:11;;;;;;;5.18;1.63;;;21.90;64.40;;;;;;5010846;28;20504;-73
2021/10/14 12:52:00;;;;;;;3.00;1.77;;;21.80;64.80;;;;;;5004783;28;20487;-76
2021/10/14 12:54:35;;;;;;;3.92;1.60;;;21.80;65.10;;;;;;5010412;28;20512;-79
2021/10/14 12:57:02;;;;;;;19.55;2.25;;;21.70;65.10;;;;;;5014642;28;20025;-76